Portsoy, United Kingdom
Current Conditions -  °F | °C
As of 9:50 PM on Friday 24 Oct 2014 (Local Time) from EGQS Reporting Station
Few Clouds Few Clouds  
Wind Chill: 41°   Ceiling: Unl
Heat Index: 45°   Visibility: 6mi
Dew Point: 39°   Wind: 6mph
Humidity: 81%   Direction: 210°SSW
Pressure: 29.59"   Gusts: NA
Location:  57.68°N, 2.69°W
Report Text: EGQS 242050Z 21005KT 9999 FEW045 07/04 Q1002 BLU
Loading
Personal Weather Stations






























Interactive Weather Map
Tropical Storm Tracking
New forecast layout! Learn more

10-Day Weather Forecast

Advertisements
Track Severe Weather on mobile